KEKO/EKO METAR and TAF weather

Enter ICAO airport designator
Station Type Date Time Source
KEKO METAR 2019/06/18 13:56 UTC NOAA

KEKO 181356Z AUTO 00000KT 10SM CLR 14/08 A3016 RMK AO2 SLP164 T01390078


Station Type Date Time Source
KEKO Decoded METAR 2019/06/18 13:56 UTC NOAA

ELKO REGIONAL AIRPORT, NV, United States (KEKO) 40-50N 115-47W 1547M
Jun 18, 2019 - 09:56 AM EDT / 2019.06.18 1356 UTC
Wind: Calm:0
Visibility: 10 mile(s):0
Sky conditions: clear
Temperature: 57.0 F (13.9 C)
Dew Point: 46.0 F (7.8 C)
Relative Humidity: 66%
Pressure (altimeter): 30.16 in. Hg (1021 hPa)
ob: KEKO 181356Z AUTO 00000KT 10SM CLR 14/08 A3016 RMK AO2 SLP164 T01390078
cycle: 14

Station Type Date Time Source
KEKO TAF 2019/06/18 12:22 UTC NOAA

TAF KEKO 181120Z 1812/1912 VRB03KT P6SM FEW200
FM182000 27010G20KT P6SM SCT140
FM190300 VRB03KT P6SM SKC

Example: see airport list